Time;durP1;ratioP1;P1;durP2;ratioP2;P2;SDS_P1;SDS_P2;PMS_P1;PMS_P2;Temp;Humidity;BMP_temperature;BMP_pressure;BME280_temperature;BME280_humidity;BME280_pressure;Samples;Min_cycle;Max_cycle;Signal;HPM_P1;HPM_P2
2022/05/16 08:12:58;;;;;;;5.47;1.60;;;17.50;99.90;;;;;;5034728;22;20577;-60
2022/05/16 08:15:25;;;;;;;5.40;1.88;;;17.50;99.90;;;;;;5022951;28;20216;-61
2022/05/16 08:17:52;;;;;;;3.58;1.88;;;17.60;99.90;;;;;;5034663;28;20209;-61
2022/05/16 08:20:20;;;;;;;3.45;1.83;;;17.80;99.90;;;;;;5040109;28;20208;-60
2022/05/16 08:22:47;;;;;;;5.40;1.90;;;17.80;99.90;;;;;;5043321;28;20220;-61
2022/05/16 08:25:14;;;;;;;4.63;1.48;;;17.90;99.90;;;;;;5027204;28;20197;-61
2022/05/16 08:27:41;;;;;;;2.72;2.22;;;18.00;99.90;;;;;;5048179;28;20756;-60
2022/05/16 08:30:12;;;;;;;6.47;2.10;;;18.00;99.90;;;;;;5022128;28;20207;-61
2022/05/16 08:32:39;;;;;;;3.22;1.83;;;18.00;99.90;;;;;;5032342;28;20221;-61
2022/05/16 08:35:09;;;;;;;5.55;1.95;;;18.00;99.90;;;;;;5031571;28;20207;-61
2022/05/16 08:40:21;;;;;;;3.08;1.83;;;18.00;99.90;;;;;;5027222;28;21158;-61
2022/05/16 08:42:53;;;;;;;5.90;1.70;;;18.10;99.90;;;;;;5040058;28;20272;-60
2022/05/16 08:45:29;;;;;;;5.38;1.83;;;18.10;99.90;;;;;;5017391;28;20201;-61
2022/05/16 08:48:04;;;;;;;11.25;1.80;;;18.40;99.90;;;;;;5029283;28;20215;-60
2022/05/16 08:50:35;;;;;;;4.88;1.85;;;18.60;99.90;;;;;;5018841;28;20225;-60
2022/05/16 08:53:07;;;;;;;4.20;1.90;;;18.60;99.90;;;;;;5011701;28;20710;-61
2022/05/16 08:55:38;;;;;;;4.30;1.80;;;18.70;99.90;;;;;;5007687;28;20701;-61
2022/05/16 08:58:10;;;;;;;6.38;1.77;;;18.70;99.90;;;;;;5036142;28;20207;-61
2022/05/16 09:00:47;;;;;;;3.22;1.98;;;18.90;99.90;;;;;;5014338;28;20204;-61
2022/05/16 09:03:18;;;;;;;3.72;1.75;;;18.90;99.90;;;;;;5031293;28;20196;-61
2022/05/16 09:05:49;;;;;;;4.68;1.70;;;19.10;99.90;;;;;;5016496;28;20268;-60
2022/05/16 09:08:27;;;;;;;3.42;1.95;;;19.20;99.90;;;;;;5016968;28;20224;-61
2022/05/16 09:11:02;;;;;;;5.47;2.03;;;19.30;99.90;;;;;;5020371;28;20232;-60
2022/05/16 09:13:43;;;;;;;5.43;1.83;;;19.50;99.90;;;;;;5038496;28;20189;-61
2022/05/16 09:16:23;;;;;;;4.00;1.80;;;19.60;99.90;;;;;;4997703;28;20224;-61
2022/05/16 09:18:55;;;;;;;8.00;1.80;;;19.60;99.90;;;;;;5033090;28;20732;-61
2022/05/16 09:21:29;;;;;;;6.30;2.03;;;19.80;99.90;;;;;;4989791;28;20205;-61
2022/05/16 09:25:08;;;;;;;10.77;1.80;;;19.90;99.90;;;;;;5055891;27;20577;-61
2022/05/16 09:30:23;;;;;;;4.28;2.08;;;20.00;99.90;;;;;;5064645;28;20250;-61
2022/05/16 09:32:55;;;;;;;4.63;1.83;;;20.00;99.90;;;;;;5058000;28;20269;-62
2022/05/16 09:35:30;;;;;;;4.80;2.15;;;20.00;99.90;;;;;;5059644;28;20230;-61
2022/05/16 09:37:59;;;;;;;4.40;1.50;;;20.10;99.90;;;;;;5073144;28;20217;-61
2022/05/16 09:40:33;;;;;;;4.80;2.22;;;20.30;99.90;;;;;;5057082;28;20214;-61
2022/05/16 09:43:06;;;;;;;3.20;1.90;;;20.30;99.90;;;;;;5074077;28;20227;-61
2022/05/16 09:45:34;;;;;;;3.75;1.98;;;20.40;99.90;;;;;;5060796;28;20260;-62
2022/05/16 09:48:01;;;;;;;7.18;1.98;;;20.50;99.90;;;;;;5064304;28;20630;-62
2022/05/16 09:50:29;;;;;;;5.47;1.75;;;20.60;99.90;;;;;;5074923;28;21065;-61
2022/05/16 09:53:14;;;;;;;6.57;1.98;;;20.70;99.90;;;;;;5083505;28;20215;-61
2022/05/16 09:55:51;;;;;;;5.75;1.90;;;20.70;99.90;;;;;;5055291;28;20258;-61
2022/05/16 09:58:21;;;;;;;3.67;1.70;;;20.80;99.90;;;;;;5071675;28;20268;-62
2022/05/16 10:00:56;;;;;;;4.55;1.75;;;20.80;99.90;;;;;;5065480;28;20209;-62
2022/05/16 10:03:29;;;;;;;4.65;1.92;;;20.80;99.90;;;;;;5066417;28;20230;-62
2022/05/16 10:05:57;;;;;;;5.88;1.90;;;20.80;99.90;;;;;;5052559;28;20219;-62
2022/05/16 10:08:28;;;;;;;3.47;2.40;;;20.90;99.90;;;;;;5072757;28;20220;-61
2022/05/16 10:13:29;;;;;;;4.70;2.00;;;21.00;99.90;;;;;;4982772;22;20796;-62
2022/05/16 10:15:58;;;;;;;6.65;2.17;;;21.10;99.90;;;;;;4957187;28;21334;-63
2022/05/16 10:18:27;;;;;;;5.53;1.70;;;21.10;99.90;;;;;;4972649;28;20203;-62
2022/05/16 10:20:58;;;;;;;7.82;2.03;;;21.10;99.90;;;;;;4968956;28;20681;-63
2022/05/16 10:23:29;;;;;;;6.22;2.10;;;21.10;99.90;;;;;;4967541;28;20219;-63
2022/05/16 10:26:08;;;;;;;2.67;1.60;;;21.20;99.90;;;;;;4943815;28;20752;-63
2022/05/16 10:28:38;;;;;;;6.78;1.80;;;21.30;99.90;;;;;;4953147;28;20757;-63
2022/05/16 10:33:52;;;;;;;9.20;1.70;;;21.20;99.90;;;;;;4943868;28;20275;-63
2022/05/16 10:36:27;;;;;;;8.77;2.03;;;21.30;99.90;;;;;;4942997;28;20223;-63
2022/05/16 10:39:02;;;;;;;4.22;1.80;;;21.30;99.90;;;;;;4938782;28;20231;-63
2022/05/16 10:41:36;;;;;;;3.17;1.90;;;21.40;99.90;;;;;;4954210;28;20200;-63
2022/05/16 10:44:12;;;;;;;6.20;2.15;;;21.40;99.90;;;;;;4927488;28;20231;-63
2022/05/16 10:46:44;;;;;;;4.45;1.70;;;21.40;99.90;;;;;;4938530;28;20204;-63
2022/05/16 10:49:14;;;;;;;5.80;2.00;;;21.50;99.90;;;;;;4938694;28;20235;-63
2022/05/16 10:51:48;;;;;;;6.28;2.15;;;21.60;99.90;;;;;;4942464;28;20208;-63
2022/05/16 10:54:19;;;;;;;5.45;1.80;;;21.80;99.90;;;;;;4945859;28;20207;-63
2022/05/16 10:57:04;;;;;;;8.27;1.73;;;21.80;99.90;;;;;;4955406;28;20207;-64
2022/05/16 11:00:01;;;;;;;6.07;1.67;;;21.80;99.90;;;;;;4940342;28;20210;-63
2022/05/16 11:02:42;;;;;;;4.97;1.80;;;21.80;99.90;;;;;;4910980;28;20612;-63
2022/05/16 11:05:25;;;;;;;1.85;1.60;;;21.80;99.90;;;;;;4931791;28;20236;-63
2022/05/16 11:07:59;;;;;;;3.03;1.65;;;21.80;99.90;;;;;;4927715;28;20222;-63
2022/05/16 11:10:33;;;;;;;5.70;2.10;;;21.90;99.90;;;;;;4940575;28;20251;-62
2022/05/16 11:13:13;;;;;;;5.03;2.03;;;21.90;99.90;;;;;;4931654;28;20600;-62
2022/05/16 11:15:44;;;;;;;4.32;1.67;;;22.00;99.90;;;;;;4942918;28;21151;-62
2022/05/16 11:18:22;;;;;;;3.83;1.90;;;22.20;99.90;;;;;;4938838;28;20208;-63
2022/05/16 11:20:54;;;;;;;3.58;2.00;;;22.20;99.90;;;;;;4941972;28;20685;-62
2022/05/16 11:23:30;;;;;;;6.68;1.75;;;22.20;99.90;;;;;;4925694;28;20204;-62
2022/05/16 11:26:05;;;;;;;3.55;1.77;;;22.20;99.90;;;;;;4947857;28;20220;-63
2022/05/16 11:29:16;;;;;;;9.00;2.22;;;22.10;99.90;;;;;;4922071;28;20211;-63
2022/05/16 11:31:33;;;;;;;6.72;2.00;;;22.10;99.90;;;;;;4954040;28;20197;-63
2022/05/16 11:34:00;;;;;;;6.35;2.05;;;22.10;99.90;;;;;;4919995;28;20204;-63
2022/05/16 11:36:44;;;;;;;4.57;1.95;;;22.10;99.90;;;;;;4948595;28;20204;-62
2022/05/16 11:39:17;;;;;;;2.97;1.83;;;22.20;99.90;;;;;;4923247;28;20211;-64
2022/05/16 11:41:56;;;;;;;4.07;2.00;;;22.20;99.90;;;;;;4948979;28;20199;-63
2022/05/16 11:44:30;;;;;;;5.32;3.00;;;22.30;99.90;;;;;;4927987;28;20228;-63
2022/05/16 11:47:09;;;;;;;3.80;1.95;;;22.50;99.90;;;;;;4944543;28;20895;-62
2022/05/16 11:49:42;;;;;;;3.65;2.42;;;22.50;99.90;;;;;;4935552;28;20207;-63
2022/05/16 11:52:29;;;;;;;10.90;1.90;;;22.60;99.90;;;;;;4934733;28;20208;-63
2022/05/16 11:55:01;;;;;;;5.93;2.03;;;22.60;99.90;;;;;;4922293;28;21762;-63
2022/05/16 12:00:34;;;;;;;4.47;2.25;;;22.80;99.90;;;;;;4922498;28;20223;-62
2022/05/16 12:03:16;;;;;;;4.43;1.70;;;22.80;99.90;;;;;;4903953;28;20314;-63
2022/05/16 12:05:46;;;;;;;3.53;1.80;;;22.80;99.90;;;;;;4923088;28;20257;-63
2022/05/16 12:08:38;;;;;;;10.93;2.17;;;22.80;99.90;;;;;;4921502;28;21271;-63
2022/05/16 12:11:14;;;;;;;4.75;1.75;;;22.80;99.90;;;;;;4929810;28;20287;-63
2022/05/16 12:14:05;;;;;;;7.40;2.45;;;22.90;99.90;;;;;;4918040;28;20357;-63
2022/05/16 12:16:42;;;;;;;5.50;2.20;;;22.90;99.90;;;;;;4925440;28;21405;-63
2022/05/16 12:19:26;;;;;;;4.28;2.05;;;22.90;99.90;;;;;;4936664;28;20220;-63
2022/05/16 12:21:57;;;;;;;4.50;2.15;;;22.80;99.90;;;;;;4914908;28;20335;-63
2022/05/16 12:24:31;;;;;;;7.75;2.00;;;22.80;99.90;;;;;;4912209;28;20228;-63
2022/05/16 12:27:05;;;;;;;5.65;2.45;;;22.80;99.90;;;;;;4934127;28;20216;-63
2022/05/16 12:29:49;;;;;;;2.38;1.67;;;22.80;99.90;;;;;;4900548;28;20228;-63
2022/05/16 12:32:53;;;;;;;7.25;2.22;;;22.80;99.90;;;;;;4920306;28;20889;-63
2022/05/16 12:35:40;;;;;;;3.33;2.22;;;22.90;99.90;;;;;;4928256;28;20212;-63
2022/05/16 12:38:09;;;;;;;5.70;2.20;;;22.90;99.90;;;;;;4958750;22;20252;-61
2022/05/16 12:41:00;;;;;;;6.80;2.03;;;23.00;99.90;;;;;;4988806;28;20224;-61
2022/05/16 12:43:40;;;;;;;4.45;2.03;;;23.10;99.90;;;;;;5017719;28;20224;-61
2022/05/16 12:46:28;;;;;;;8.95;2.47;;;23.30;99.90;;;;;;4999820;28;20228;-61
2022/05/16 12:49:24;;;;;;;4.93;1.98;;;23.40;99.90;;;;;;5014786;28;20235;-61
2022/05/16 12:51:59;;;;;;;5.00;1.90;;;23.60;99.90;;;;;;5007552;28;20225;-61
2022/05/16 12:54:47;;;;;;;4.82;1.85;;;23.60;99.90;;;;;;4996411;28;20205;-61
2022/05/16 12:57:37;;;;;;;4.85;1.95;;;23.70;99.90;;;;;;5011638;28;20204;-62
2022/05/16 13:00:10;;;;;;;3.30;1.80;;;23.90;99.90;;;;;;5014827;28;20756;-61
2022/05/16 13:02:48;;;;;;;7.40;2.30;;;23.90;99.90;;;;;;4998184;28;20630;-61
2022/05/16 13:05:34;;;;;;;5.18;2.13;;;24.00;99.90;;;;;;5007151;28;20243;-61
2022/05/16 13:08:10;;;;;;;5.15;2.47;;;24.00;99.90;;;;;;5029638;28;21389;-62
2022/05/16 13:10:47;;;;;;;2.90;1.95;;;24.20;99.90;;;;;;4984244;28;20216;-62
2022/05/16 13:13:32;;;;;;;3.97;2.05;;;24.30;99.90;;;;;;5005974;28;20233;-62
2022/05/16 13:16:08;;;;;;;3.80;2.00;;;24.20;99.90;;;;;;4995370;28;20824;-62
2022/05/16 13:18:44;;;;;;;8.68;2.22;;;24.30;99.90;;;;;;5002916;28;20235;-62
2022/05/16 13:21:17;;;;;;;4.45;2.30;;;24.30;99.90;;;;;;5012562;28;20228;-62
2022/05/16 13:23:44;;;;;;;5.93;2.05;;;24.10;99.90;;;;;;5022045;28;20224;-62
2022/05/16 13:31:42;;;;;;;3.85;2.05;;;23.90;99.90;;;;;;5013571;28;20228;-62
2022/05/16 13:34:11;;;;;;;8.90;2.35;;;24.00;99.90;;;;;;5017200;28;20263;-62
2022/05/16 13:36:44;;;;;;;7.18;2.60;;;24.10;99.90;;;;;;5006440;28;20217;-62
2022/05/16 13:39:15;;;;;;;6.30;1.90;;;24.00;99.90;;;;;;5031162;28;20241;-61
2022/05/16 13:41:43;;;;;;;6.90;2.00;;;24.10;99.90;;;;;;4995053;28;20216;-61
2022/05/16 13:44:12;;;;;;;3.85;2.25;;;24.20;99.90;;;;;;5017196;28;20602;-61
2022/05/16 13:46:39;;;;;;;4.13;2.00;;;24.20;99.90;;;;;;4992675;28;20209;-61
2022/05/16 13:49:11;;;;;;;5.03;2.30;;;24.30;99.90;;;;;;5015241;28;20223;-62
2022/05/16 13:51:47;;;;;;;6.03;1.98;;;24.20;99.90;;;;;;5019674;28;20224;-61
2022/05/16 13:54:16;;;;;;;4.13;2.17;;;24.20;99.90;;;;;;5023648;28;20219;-61
2022/05/16 13:56:49;;;;;;;4.72;2.03;;;24.30;99.90;;;;;;5001395;28;20674;-61
2022/05/16 13:59:22;;;;;;;22.65;2.60;;;24.40;99.90;;;;;;5003095;28;20678;-61
2022/05/16 14:01:57;;;;;;;5.72;2.42;;;24.40;99.90;;;;;;4995532;28;20239;-62
2022/05/16 14:04:29;;;;;;;5.38;2.20;;;24.30;99.90;;;;;;5007997;28;20266;-61
2022/05/16 14:07:06;;;;;;;9.20;2.53;;;24.20;99.90;;;;;;5020336;28;23246;-61
2022/05/16 14:09:42;;;;;;;5.18;2.22;;;24.10;99.90;;;;;;5001969;28;20252;-61
2022/05/16 14:12:14;;;;;;;5.40;2.28;;;24.10;99.90;;;;;;5025590;28;20205;-61
2022/05/16 14:14:42;;;;;;;7.45;2.35;;;24.00;99.90;;;;;;5010601;28;20220;-61
2022/05/16 14:17:10;;;;;;;7.25;2.72;;;23.90;99.90;;;;;;5028856;28;20215;-61
2022/05/16 14:19:42;;;;;;;8.27;2.10;;;23.80;99.90;;;;;;5000662;28;20827;-61
2022/05/16 14:22:13;;;;;;;4.45;1.90;;;23.80;99.90;;;;;;5027998;28;20209;-61
2022/05/16 14:24:49;;;;;;;6.68;2.30;;;23.70;99.90;;;;;;5012284;28;20338;-62
2022/05/16 14:27:24;;;;;;;3.03;2.28;;;23.80;99.90;;;;;;5019269;28;20204;-61
2022/05/16 14:29:59;;;;;;;7.85;2.53;;;23.80;99.90;;;;;;5005028;28;20231;-62
2022/05/16 14:32:26;;;;;;;5.18;2.35;;;23.80;99.90;;;;;;5024731;28;20203;-61
2022/05/16 14:35:02;;;;;;;3.45;2.35;;;23.80;99.90;;;;;;5000683;28;20237;-62
2022/05/16 14:37:33;;;;;;;7.80;2.38;;;23.80;99.90;;;;;;5020349;28;21083;-62
2022/05/16 14:40:12;;;;;;;7.95;2.35;;;23.80;99.90;;;;;;4972947;28;20386;-62
2022/05/16 14:42:41;;;;;;;6.30;2.42;;;23.60;99.90;;;;;;5013152;28;20239;-62
2022/05/16 14:47:54;;;;;;;5.13;2.25;;;23.60;99.90;;;;;;5011126;28;20228;-61
2022/05/16 14:50:23;;;;;;;5.60;2.13;;;23.60;99.90;;;;;;4977285;28;20240;-63
2022/05/16 14:52:56;;;;;;;4.93;2.30;;;23.60;99.90;;;;;;5031683;28;20231;-61
2022/05/16 14:55:28;;;;;;;6.88;2.80;;;23.50;99.90;;;;;;5024638;28;20217;-62
2022/05/16 14:57:55;;;;;;;3.88;2.10;;;23.60;99.90;;;;;;5045440;28;20210;-62
2022/05/16 15:05:53;;;;;;;4.70;2.60;;;23.70;99.90;;;;;;5004471;28;20801;-62
2022/05/16 15:08:28;;;;;;;7.85;3.17;;;23.80;99.90;;;;;;5031140;28;20207;-62
2022/05/16 15:10:56;;;;;;;3.08;2.08;;;23.90;99.90;;;;;;5043586;28;20200;-62
2022/05/16 15:13:22;;;;;;;5.63;2.08;;;23.80;99.90;;;;;;5020667;28;20219;-62
2022/05/16 15:15:49;;;;;;;5.38;2.40;;;23.80;99.90;;;;;;5014691;28;20717;-62
2022/05/16 15:18:17;;;;;;;10.32;2.78;;;23.60;99.90;;;;;;5045705;28;20201;-63
2022/05/16 15:20:46;;;;;;;8.45;2.50;;;23.60;99.90;;;;;;5005892;28;20290;-62
2022/05/16 15:25:40;;;;;;;10.75;2.83;;;23.40;99.90;;;;;;5003565;22;20245;-62
2022/05/16 15:28:09;;;;;;;7.50;2.50;;;23.40;99.90;;;;;;4960922;28;20234;-61
2022/05/16 15:30:36;;;;;;;7.63;2.70;;;23.30;99.90;;;;;;4962491;28;20303;-62
2022/05/16 15:33:03;;;;;;;4.95;2.45;;;23.20;99.90;;;;;;4984470;28;20265;-61
2022/05/16 15:35:30;;;;;;;7.55;3.08;;;23.10;99.90;;;;;;4957062;28;20720;-62
2022/05/16 15:37:57;;;;;;;7.57;2.20;;;23.10;99.90;;;;;;5000861;28;20222;-62
2022/05/16 15:40:24;;;;;;;3.75;2.38;;;23.00;99.90;;;;;;4983983;28;20202;-63
2022/05/16 15:42:53;;;;;;;8.02;2.63;;;23.00;99.90;;;;;;4977407;28;21453;-62
2022/05/16 15:45:20;;;;;;;3.25;2.20;;;22.90;99.90;;;;;;4948383;28;20230;-63
2022/05/16 15:47:50;;;;;;;4.43;2.25;;;22.80;99.90;;;;;;4980775;28;20206;-62
2022/05/16 15:50:19;;;;;;;9.05;2.50;;;22.80;99.90;;;;;;4955088;28;20897;-63
2022/05/16 15:52:46;;;;;;;10.00;2.63;;;22.70;99.90;;;;;;4980029;28;20241;-60
2022/05/16 15:55:15;;;;;;;6.88;2.35;;;22.70;99.90;;;;;;4973129;28;20205;-60
2022/05/16 15:57:42;;;;;;;3.30;2.13;;;22.70;99.90;;;;;;5001099;28;20202;-61
2022/05/16 16:00:13;;;;;;;7.32;2.28;;;22.60;99.90;;;;;;4978940;28;20229;-61
2022/05/16 16:02:44;;;;;;;5.15;2.45;;;22.60;99.90;;;;;;4988513;28;20205;-61
2022/05/16 16:10:47;;;;;;;4.03;2.45;;;22.50;99.90;;;;;;4980436;28;20206;-62
2022/05/16 16:13:15;;;;;;;8.23;2.67;;;22.50;99.90;;;;;;4978243;28;20874;-62
2022/05/16 16:15:44;;;;;;;8.57;2.60;;;22.40;99.90;;;;;;4968153;22;20704;-62
2022/05/16 16:18:12;;;;;;;6.57;2.33;;;22.40;99.90;;;;;;4963028;28;20211;-62
2022/05/16 16:20:39;;;;;;;4.38;2.30;;;22.40;99.90;;;;;;4962059;28;20760;-62
2022/05/16 16:23:06;;;;;;;6.90;2.58;;;22.40;99.90;;;;;;4944668;28;20218;-62
2022/05/16 16:25:35;;;;;;;3.47;2.35;;;22.40;99.90;;;;;;4974257;28;20231;-62
2022/05/16 16:28:05;;;;;;;6.57;2.78;;;22.40;99.90;;;;;;4969446;28;20211;-62
2022/05/16 16:30:37;;;;;;;5.85;3.42;;;22.40;99.90;;;;;;4935014;28;20205;-62
2022/05/16 16:33:06;;;;;;;9.48;2.38;;;22.50;99.90;;;;;;4955764;28;20225;-62
2022/05/16 16:35:34;;;;;;;8.10;2.60;;;22.50;99.90;;;;;;4944461;28;20235;-62
2022/05/16 16:38:04;;;;;;;4.60;2.80;;;22.60;99.90;;;;;;4929908;28;20226;-61
2022/05/16 16:40:31;;;;;;;5.32;2.83;;;22.60;99.90;;;;;;4960247;28;20234;-61
2022/05/16 16:42:57;;;;;;;4.75;2.92;;;22.70;99.90;;;;;;4978035;28;20211;-61
2022/05/16 16:45:25;;;;;;;9.48;2.72;;;22.80;99.90;;;;;;4945004;28;20226;-62
2022/05/16 16:47:52;;;;;;;10.43;2.40;;;22.80;99.90;;;;;;4943722;28;20231;-62
2022/05/16 16:50:20;;;;;;;6.15;2.50;;;22.80;99.90;;;;;;4950522;28;20637;-62
2022/05/16 16:58:17;;;;;;;5.50;2.90;;;22.80;99.90;;;;;;4984680;28;20291;-62
2022/05/16 17:00:44;;;;;;;4.57;2.78;;;22.80;99.90;;;;;;4954648;28;20217;-62
2022/05/16 17:03:13;;;;;;;3.97;2.60;;;22.80;99.90;;;;;;4942041;28;20217;-62
2022/05/16 17:05:43;;;;;;;4.70;2.50;;;22.70;99.90;;;;;;4977377;28;20218;-62
2022/05/16 17:08:14;;;;;;;6.82;2.83;;;22.70;99.90;;;;;;4949808;28;20227;-62
2022/05/16 17:10:46;;;;;;;5.22;2.38;;;22.60;99.90;;;;;;4954280;28;20214;-63
2022/05/16 17:13:18;;;;;;;9.43;2.78;;;22.50;99.90;;;;;;4966622;28;20597;-63
2022/05/16 17:15:45;;;;;;;4.88;2.10;;;22.50;99.90;;;;;;4946637;28;20707;-62
2022/05/16 17:18:12;;;;;;;7.35;2.45;;;22.50;99.90;;;;;;4962920;28;20207;-62
2022/05/16 17:20:39;;;;;;;4.68;2.58;;;22.40;99.90;;;;;;4943977;28;20341;-63
2022/05/16 17:23:12;;;;;;;7.65;2.53;;;22.40;99.90;;;;;;4968013;28;20207;-62
2022/05/16 17:25:39;;;;;;;6.18;2.60;;;22.40;99.90;;;;;;4937251;28;20234;-63
2022/05/16 17:28:06;;;;;;;5.57;2.55;;;22.40;99.90;;;;;;4967831;28;20203;-63
2022/05/16 17:30:34;;;;;;;7.47;2.55;;;22.40;99.90;;;;;;4948715;28;20231;-63
2022/05/16 17:33:03;;;;;;;6.00;2.90;;;22.30;99.90;;;;;;4966039;28;20289;-62
2022/05/16 17:35:30;;;;;;;6.13;2.78;;;22.30;99.90;;;;;;4961727;28;20211;-62
2022/05/16 17:37:57;;;;;;;6.10;2.88;;;22.20;99.90;;;;;;4949005;28;20429;-62
2022/05/16 17:40:26;;;;;;;8.00;3.00;;;22.20;99.90;;;;;;4925819;28;20248;-63
2022/05/16 17:42:53;;;;;;;7.07;2.85;;;22.20;99.90;;;;;;4949643;28;20241;-63
2022/05/16 17:45:20;;;;;;;7.65;2.95;;;22.20;99.90;;;;;;4958783;28;20315;-64
2022/05/16 17:47:47;;;;;;;5.63;2.75;;;22.10;99.90;;;;;;4942671;28;20676;-63
2022/05/16 17:50:14;;;;;;;6.50;3.13;;;22.10;99.90;;;;;;4957257;28;20326;-63
2022/05/16 17:52:41;;;;;;;6.78;2.70;;;22.10;99.90;;;;;;4955182;28;20230;-63
2022/05/16 17:55:10;;;;;;;8.60;2.53;;;22.00;99.90;;;;;;4938814;28;20237;-63
2022/05/16 17:57:38;;;;;;;15.52;2.83;;;22.00;99.90;;;;;;4930313;28;20226;-63
2022/05/16 18:00:07;;;;;;;7.38;2.92;;;21.90;99.90;;;;;;4950253;28;20212;-63
2022/05/16 18:05:29;;;;;;;13.07;3.30;;;21.90;99.90;;;;;;4499871;27;15758192;-62
2022/05/16 18:07:58;;;;;;;9.45;3.08;;;21.90;99.90;;;;;;5068732;28;20222;-62
2022/05/16 18:10:26;;;;;;;12.55;3.45;;;21.90;99.90;;;;;;5053952;27;20198;-62
2022/05/16 18:12:55;;;;;;;6.88;3.50;;;21.90;99.90;;;;;;5043894;27;20238;-61
2022/05/16 18:15:25;;;;;;;11.63;2.85;;;21.90;99.90;;;;;;5079870;27;20227;-61
2022/05/16 18:17:55;;;;;;;6.75;3.55;;;21.90;99.90;;;;;;5050785;27;20229;-61
2022/05/16 18:23:26;;;;;;;4.68;3.28;;;21.80;99.90;;;;;;4968986;27;2070695;-61
2022/05/16 18:25:53;;;;;;;7.03;3.30;;;21.80;99.90;;;;;;5013582;28;20219;-61
2022/05/16 18:28:20;;;;;;;8.68;2.88;;;21.80;99.90;;;;;;5006851;28;20231;-62
2022/05/16 18:30:47;;;;;;;8.13;3.55;;;21.70;99.90;;;;;;5045154;28;20224;-61
2022/05/16 18:33:15;;;;;;;4.38;3.50;;;21.70;99.90;;;;;;5022713;28;20212;-61
2022/05/16 18:35:42;;;;;;;7.72;4.00;;;21.70;99.90;;;;;;5005016;28;20224;-62
2022/05/16 18:38:09;;;;;;;5.45;3.47;;;21.80;99.90;;;;;;5010368;28;20224;-62
2022/05/16 18:40:38;;;;;;;7.88;4.10;;;21.70;99.90;;;;;;5021538;28;20219;-63
2022/05/16 18:51:21;;;;;;;8.30;4.28;;;21.40;99.90;;;;;;5020744;28;20466;-63
2022/05/16 18:53:49;;;;;;;7.90;3.92;;;21.30;99.90;;;;;;5018842;28;20213;-63
2022/05/16 18:56:21;;;;;;;8.40;4.22;;;21.20;99.90;;;;;;5030029;28;20231;-64
2022/05/16 18:58:48;;;;;;;9.73;5.15;;;21.10;99.90;;;;;;5013504;28;20216;-64
2022/05/16 19:01:16;;;;;;;6.10;4.00;;;21.00;99.90;;;;;;5017707;28;20756;-63
2022/05/16 19:03:43;;;;;;;10.13;5.00;;;20.80;99.90;;;;;;5030706;28;20334;-63
2022/05/16 19:06:11;;;;;;;8.88;4.82;;;20.70;99.90;;;;;;5024198;28;20225;-63
2022/05/16 19:08:40;;;;;;;8.25;4.53;;;20.60;99.90;;;;;;5040944;28;20197;-63
2022/05/16 19:11:12;;;;;;;10.10;5.30;;;20.50;99.90;;;;;;5009128;28;20262;-63
2022/05/16 19:13:41;;;;;;;8.13;4.78;;;20.40;99.90;;;;;;5033281;28;20272;-63
2022/05/16 19:16:08;;;;;;;6.68;5.10;;;20.30;99.90;;;;;;5037756;28;20242;-62
2022/05/16 19:18:35;;;;;;;7.50;5.35;;;20.20;99.90;;;;;;5042867;28;21102;-62
2022/05/16 19:21:07;;;;;;;12.80;6.53;;;20.10;99.90;;;;;;5019153;28;20727;-62
2022/05/16 19:23:35;;;;;;;11.65;7.90;;;19.90;99.90;;;;;;5016645;28;20235;-62
2022/05/16 19:26:04;;;;;;;13.90;8.15;;;19.70;99.90;;;;;;5030191;28;20234;-62
2022/05/16 19:34:02;;;;;;;11.52;8.52;;;19.50;99.90;;;;;;5034084;28;20337;-63
2022/05/16 19:36:28;;;;;;;14.20;9.02;;;19.40;99.90;;;;;;4980841;28;20878;-63
2022/05/16 19:39:00;;;;;;;12.18;9.55;;;19.30;99.90;;;;;;5019907;28;20776;-62
2022/05/16 19:41:28;;;;;;;19.98;10.10;;;19.30;99.90;;;;;;4994050;28;20293;-63
2022/05/16 19:43:55;;;;;;;17.20;10.07;;;19.20;99.90;;;;;;5041781;28;20208;-63
2022/05/16 19:46:24;;;;;;;16.25;10.93;;;19.20;99.90;;;;;;5012924;28;20228;-62
2022/05/16 19:48:51;;;;;;;15.13;10.70;;;19.10;99.90;;;;;;5019075;28;20670;-62
2022/05/16 19:51:20;;;;;;;19.67;11.10;;;19.10;99.90;;;;;;5014830;28;20211;-63
2022/05/16 19:53:48;;;;;;;16.33;10.75;;;19.10;99.90;;;;;;5009706;28;20682;-62
2022/05/16 19:56:16;;;;;;;17.55;10.65;;;19.10;99.90;;;;;;4991690;28;20211;-62
2022/05/16 19:58:43;;;;;;;13.25;11.40;;;19.00;99.90;;;;;;5020087;28;20389;-62
2022/05/16 20:01:11;;;;;;;16.95;11.60;;;19.00;99.90;;;;;;5007144;28;20213;-62
2022/05/16 20:03:40;;;;;;;15.55;11.63;;;18.90;99.90;;;;;;5025290;28;20242;-62
2022/05/16 20:06:08;;;;;;;13.57;10.93;;;18.80;99.90;;;;;;4998901;28;21505;-62
2022/05/16 20:08:35;;;;;;;13.18;11.00;;;18.90;99.90;;;;;;5013772;28;20652;-62
2022/05/16 20:11:02;;;;;;;14.23;10.48;;;18.70;99.90;;;;;;4999822;28;20239;-62
2022/05/16 20:13:29;;;;;;;12.50;10.48;;;18.60;99.90;;;;;;4991810;28;20234;-62
2022/05/16 20:15:56;;;;;;;18.13;11.32;;;18.60;99.90;;;;;;5031457;28;20201;-63
2022/05/16 20:18:23;;;;;;;12.25;10.88;;;18.50;99.90;;;;;;4985650;28;20213;-62
2022/05/16 20:20:51;;;;;;;19.33;12.38;;;18.50;99.90;;;;;;5025498;28;20208;-62
2022/05/16 20:26:04;;;;;;;12.65;11.30;;;18.40;99.90;;;;;;5001944;28;20307;-63
2022/05/16 20:28:32;;;;;;;14.55;11.85;;;18.40;99.90;;;;;;4995868;28;20247;-63
2022/05/16 20:30:59;;;;;;;18.17;13.43;;;18.40;99.90;;;;;;5009707;28;20215;-63
2022/05/16 20:33:28;;;;;;;20.05;12.85;;;18.30;99.90;;;;;;4997075;28;20221;-64
2022/05/16 20:35:59;;;;;;;17.08;12.02;;;18.40;99.90;;;;;;5029562;28;20302;-63
2022/05/16 20:38:26;;;;;;;15.63;11.98;;;18.40;99.90;;;;;;5019924;28;20301;-63
2022/05/16 20:40:57;;;;;;;17.77;11.70;;;18.40;99.90;;;;;;4999383;28;20748;-64
2022/05/16 20:43:24;;;;;;;15.02;11.55;;;18.30;99.90;;;;;;5015916;28;20240;-63
2022/05/16 20:45:51;;;;;;;14.93;10.88;;;18.30;99.90;;;;;;5022190;28;20231;-64
2022/05/16 20:48:19;;;;;;;14.40;10.73;;;18.30;99.90;;;;;;4981679;28;20632;-64
2022/05/16 20:50:46;;;;;;;12.90;10.48;;;18.30;99.90;;;;;;5024131;28;20224;-64
2022/05/16 20:53:17;;;;;;;12.00;9.32;;;18.30;99.90;;;;;;4985573;28;20592;-65
2022/05/16 20:55:45;;;;;;;12.82;10.60;;;18.20;99.90;;;;;;4997547;28;20213;-65
2022/05/16 20:58:12;;;;;;;12.13;9.30;;;18.20;99.90;;;;;;5020017;28;20221;-64
2022/05/16 21:00:44;;;;;;;11.48;9.38;;;18.20;99.90;;;;;;5018330;28;20224;-65
2022/05/16 21:03:12;;;;;;;13.73;9.00;;;18.20;99.90;;;;;;5014238;28;20223;-64
2022/05/16 21:05:40;;;;;;;12.43;8.90;;;18.30;99.90;;;;;;5031959;28;21038;-64
2022/05/16 21:08:07;;;;;;;11.90;8.73;;;18.30;99.90;;;;;;5012283;28;20209;-64
2022/05/16 21:10:36;;;;;;;11.90;8.68;;;18.30;99.90;;;;;;5007957;28;20227;-65
2022/05/16 21:13:06;;;;;;;12.05;8.63;;;18.30;99.90;;;;;;5015133;28;20836;-65
2022/05/16 21:15:33;;;;;;;9.77;7.65;;;18.30;99.90;;;;;;5016541;28;20258;-64
2022/05/16 21:18:00;;;;;;;8.75;6.93;;;18.30;99.90;;;;;;5011269;28;20707;-64
2022/05/16 21:20:27;;;;;;;10.93;7.07;;;18.30;99.90;;;;;;5033878;28;20201;-65
2022/05/16 21:22:54;;;;;;;12.98;7.32;;;18.10;99.90;;;;;;5039971;28;20243;-64
2022/05/16 21:25:21;;;;;;;8.05;6.90;;;18.10;99.90;;;;;;5016514;28;20267;-64
2022/05/16 21:27:50;;;;;;;10.10;7.63;;;18.00;99.90;;;;;;5004818;28;20208;-65
2022/05/16 21:30:21;;;;;;;11.95;7.80;;;18.00;99.90;;;;;;5020929;28;20295;-64
2022/05/16 21:32:48;;;;;;;10.95;8.65;;;18.00;99.90;;;;;;5006974;28;20204;-65
2022/05/16 21:35:17;;;;;;;11.73;9.25;;;18.00;99.90;;;;;;5034356;28;20777;-64
2022/05/16 21:37:45;;;;;;;12.80;9.55;;;17.90;99.90;;;;;;5019034;28;20215;-64
2022/05/16 21:40:14;;;;;;;15.00;10.63;;;17.90;99.90;;;;;;5020486;28;20275;-65
2022/05/16 21:42:41;;;;;;;14.73;10.70;;;17.90;99.90;;;;;;5012166;28;20236;-64
2022/05/16 21:45:26;;;;;;;14.63;10.80;;;17.90;99.90;;;;;;5008344;28;20196;-65
2022/05/16 21:47:54;;;;;;;12.43;9.20;;;17.90;99.90;;;;;;5004965;28;20346;-65
2022/05/16 21:50:22;;;;;;;13.25;10.63;;;18.00;99.90;;;;;;4999995;28;20616;-65
2022/05/16 21:52:49;;;;;;;20.73;9.75;;;17.90;99.90;;;;;;5037583;28;20689;-65
2022/05/16 21:55:17;;;;;;;13.30;9.38;;;17.90;99.90;;;;;;5024200;28;20208;-64
2022/05/16 21:57:46;;;;;;;10.90;9.32;;;18.00;99.90;;;;;;5022567;28;20201;-65
2022/05/16 22:00:32;;;;;;;15.48;9.23;;;18.00;99.90;;;;;;5016765;28;21464;-65
2022/05/16 22:03:00;;;;;;;13.63;9.65;;;18.00;99.90;;;;;;5000630;28;21058;-64
2022/05/16 22:05:29;;;;;;;11.88;9.35;;;18.00;99.90;;;;;;5016324;28;20220;-65
2022/05/16 22:07:56;;;;;;;11.80;9.63;;;18.00;99.90;;;;;;5045136;28;20197;-65
2022/05/16 22:10:24;;;;;;;11.50;9.38;;;17.90;99.90;;;;;;5012631;28;20206;-65
2022/05/16 22:12:51;;;;;;;15.77;10.05;;;17.90;99.90;;;;;;5015018;28;20214;-64
2022/05/16 22:15:19;;;;;;;16.70;10.85;;;17.90;99.90;;;;;;5014541;28;20204;-65
2022/05/16 22:17:48;;;;;;;13.68;10.55;;;17.90;99.90;;;;;;5013035;28;20208;-65
2022/05/16 22:20:15;;;;;;;12.80;10.40;;;17.80;99.90;;;;;;5019117;28;20212;-64